KOJC/OJC METAR and TAF weather

Enter ICAO airport designator
Station Type Date Time Source
KOJC METAR 2019/06/17 06:53 UTC NOAA

KOJC 170653Z AUTO 00000KT 10SM CLR 20/19 A2989 RMK AO2 SLP109 T02000189


Station Type Date Time Source
KOJC Decoded METAR 2019/06/17 06:53 UTC NOAA

OLATHE JOHNSON CO EXECUTIVE, KS, United States (KOJC) 38-50N 94-44W 326M
Jun 17, 2019 - 02:53 AM EDT / 2019.06.17 0653 UTC
Wind: Calm:0
Visibility: 10 mile(s):0
Sky conditions: clear
Temperature: 68.0 F (20.0 C)
Dew Point: 66.0 F (18.9 C)
Relative Humidity: 93%
Pressure (altimeter): 29.89 in. Hg (1012 hPa)
ob: KOJC 170653Z AUTO 00000KT 10SM CLR 20/19 A2989 RMK AO2 SLP109 T02000189
cycle: 7

Station Type Date Time Source
KOJC TAF UTC NOAA

Error!

Example: see airport list